Time;durP1;ratioP1;P1;durP2;ratioP2;P2;SDS_P1;SDS_P2;PMS_P1;PMS_P2;Temp;Humidity;BMP_temperature;BMP_pressure;BME280_temperature;BME280_humidity;BME280_pressure;Samples;Min_cycle;Max_cycle;Signal;HPM_P1;HPM_P2
2023/07/14 00:00:35;;;;;;;11.18;8.45;;;19.30;88.70;;;;;;5092843;28;20024;-77
2023/07/14 00:03:03;;;;;;;13.45;9.23;;;19.30;88.50;;;;;;5092838;28;20044;-76
2023/07/14 00:05:33;;;;;;;14.23;8.43;;;19.30;88.20;;;;;;5092734;28;20539;-76
2023/07/14 00:07:59;;;;;;;14.23;8.55;;;19.30;88.30;;;;;;5093772;28;20016;-76
2023/07/14 00:10:35;;;;;;;13.45;8.55;;;19.20;88.40;;;;;;5075986;28;20028;-77
2023/07/14 00:13:05;;;;;;;12.95;8.82;;;19.20;88.90;;;;;;5093841;28;20020;-77
2023/07/14 00:15:32;;;;;;;13.40;8.45;;;19.20;89.10;;;;;;5092627;28;20055;-76
2023/07/14 00:18:21;;;;;;;12.75;8.15;;;19.20;89.00;;;;;;5093549;28;20024;-76
2023/07/14 00:20:46;;;;;;;11.27;8.90;;;19.20;88.40;;;;;;5093585;28;20021;-77
2023/07/14 00:23:14;;;;;;;13.80;9.18;;;19.10;87.90;;;;;;5092572;28;20035;-76
2023/07/14 00:25:40;;;;;;;13.18;9.25;;;19.10;88.40;;;;;;5093434;28;20025;-76
2023/07/14 00:28:20;;;;;;;12.88;8.23;;;19.10;88.60;;;;;;5092537;28;20044;-76
2023/07/14 00:30:48;;;;;;;10.27;8.05;;;19.00;88.70;;;;;;5092436;28;20025;-76
2023/07/14 00:33:18;;;;;;;10.88;7.85;;;19.00;88.70;;;;;;5091898;28;20025;-76
2023/07/14 00:35:47;;;;;;;12.38;8.02;;;19.00;88.70;;;;;;5093427;28;20055;-76
2023/07/14 00:38:13;;;;;;;12.57;8.15;;;19.00;88.70;;;;;;5092434;28;20016;-77
2023/07/14 00:40:47;;;;;;;12.75;8.27;;;18.90;88.70;;;;;;5093342;28;20499;-76
2023/07/14 00:43:19;;;;;;;11.18;7.95;;;18.90;88.80;;;;;;5092175;28;20049;-76
2023/07/14 00:45:50;;;;;;;12.50;8.10;;;18.80;88.90;;;;;;5092235;28;20027;-77
2023/07/14 00:48:19;;;;;;;11.13;7.93;;;18.80;88.90;;;;;;5093355;28;20367;-76
2023/07/14 00:50:59;;;;;;;11.57;7.95;;;18.80;88.60;;;;;;5093244;28;20024;-76
2023/07/14 00:53:32;;;;;;;10.07;7.68;;;18.80;88.60;;;;;;5092227;28;20016;-77
2023/07/14 00:56:30;;;;;;;10.90;8.13;;;18.70;89.00;;;;;;5093245;28;20380;-76
2023/07/14 00:58:56;;;;;;;13.00;8.00;;;18.60;89.20;;;;;;5091726;28;20037;-76
2023/07/14 01:01:22;;;;;;;10.75;7.25;;;18.60;89.30;;;;;;5093246;28;20048;-76
2023/07/14 01:03:51;;;;;;;9.40;7.30;;;18.70;89.10;;;;;;5092157;28;20028;-77
2023/07/14 01:06:31;;;;;;;12.55;8.13;;;18.70;88.60;;;;;;5093004;28;20027;-77
2023/07/14 01:09:08;;;;;;;12.23;8.30;;;18.80;88.40;;;;;;5092181;28;20021;-77
2023/07/14 01:11:50;;;;;;;9.80;7.45;;;18.70;88.50;;;;;;5093096;28;20017;-76
2023/07/14 01:14:19;;;;;;;10.23;6.97;;;18.70;88.00;;;;;;5092043;28;20020;-76
2023/07/14 01:16:47;;;;;;;12.13;7.95;;;18.70;88.80;;;;;;5091988;28;20036;-75
2023/07/14 01:19:37;;;;;;;9.75;7.50;;;18.60;88.00;;;;;;5092964;28;20025;-76
2023/07/14 01:22:16;;;;;;;10.13;6.90;;;18.70;87.90;;;;;;5085067;28;20116;-76
2023/07/14 01:25:03;;;;;;;9.95;7.07;;;18.60;87.70;;;;;;5092941;28;20076;-76
2023/07/14 01:27:29;;;;;;;11.45;6.47;;;18.50;87.70;;;;;;5091866;28;20032;-76
2023/07/14 01:29:56;;;;;;;9.43;6.43;;;18.40;87.50;;;;;;5092849;28;20046;-77
2023/07/14 01:32:23;;;;;;;10.45;7.18;;;18.40;87.50;;;;;;5091890;28;20028;-77
2023/07/14 01:34:50;;;;;;;11.90;7.65;;;18.30;88.00;;;;;;5091683;28;20028;-76
2023/07/14 01:37:19;;;;;;;11.63;6.68;;;18.20;88.40;;;;;;5075179;28;20036;-77
2023/07/14 01:39:45;;;;;;;9.15;6.80;;;18.20;88.30;;;;;;5092774;28;20017;-76
2023/07/14 01:42:12;;;;;;;8.85;6.50;;;18.20;88.40;;;;;;5074988;28;20030;-76
2023/07/14 01:44:38;;;;;;;11.18;7.50;;;18.20;88.60;;;;;;5092878;28;20126;-76
2023/07/14 01:47:05;;;;;;;10.95;7.07;;;18.10;89.10;;;;;;5096383;28;20025;-76
2023/07/14 01:49:41;;;;;;;9.75;6.20;;;18.10;89.00;;;;;;5096373;28;20027;-76
2023/07/14 01:52:12;;;;;;;10.00;6.25;;;18.20;89.00;;;;;;5096383;28;20078;-76
2023/07/14 01:54:45;;;;;;;11.18;7.03;;;18.20;88.90;;;;;;5095401;28;20013;-76
2023/07/14 01:57:14;;;;;;;10.88;7.65;;;18.20;88.90;;;;;;5096251;28;20035;-77
2023/07/14 01:59:45;;;;;;;10.63;7.03;;;18.10;89.10;;;;;;5096184;28;20052;-76
2023/07/14 02:02:19;;;;;;;10.52;7.05;;;18.10;89.50;;;;;;5096180;28;20028;-76
2023/07/14 02:04:47;;;;;;;9.23;6.72;;;18.10;89.50;;;;;;5096141;28;20020;-76
2023/07/14 02:07:14;;;;;;;13.25;7.35;;;18.10;89.30;;;;;;5095067;28;20043;-76
2023/07/14 02:09:41;;;;;;;12.25;6.70;;;18.20;90.10;;;;;;5078324;28;20040;-76
2023/07/14 02:12:14;;;;;;;12.32;7.43;;;18.20;89.70;;;;;;5096012;28;20053;-76
2023/07/14 02:14:58;;;;;;;10.73;6.93;;;18.20;89.50;;;;;;5094941;28;20020;-76
2023/07/14 02:17:30;;;;;;;11.55;7.53;;;18.20;89.30;;;;;;5094889;28;20024;-76
2023/07/14 02:19:57;;;;;;;12.57;7.45;;;18.20;89.30;;;;;;5094930;28;20029;-76
2023/07/14 02:22:24;;;;;;;9.70;7.00;;;18.10;89.40;;;;;;5095782;28;20032;-77
2023/07/14 02:24:51;;;;;;;10.98;7.55;;;18.00;89.80;;;;;;5094729;28;20036;-76
2023/07/14 02:27:17;;;;;;;11.07;7.10;;;18.00;89.90;;;;;;5095695;28;20024;-76
2023/07/14 02:29:42;;;;;;;15.73;7.57;;;18.10;90.00;;;;;;5095638;28;20025;-76
2023/07/14 02:32:44;;;;;;;11.32;7.13;;;18.10;90.00;;;;;;5094580;28;20032;-77
2023/07/14 02:35:22;;;;;;;13.43;7.35;;;18.10;89.80;;;;;;5082006;28;20128;-76
2023/07/14 02:38:03;;;;;;;13.40;7.85;;;18.00;89.80;;;;;;5094516;28;20062;-76
2023/07/14 02:40:50;;;;;;;11.20;7.55;;;17.90;90.10;;;;;;5094518;28;20025;-76
2023/07/14 02:43:18;;;;;;;11.43;8.07;;;17.90;90.50;;;;;;5095153;28;20055;-75
2023/07/14 02:45:57;;;;;;;11.48;7.75;;;17.90;90.20;;;;;;5094309;28;20032;-76
2023/07/14 02:48:30;;;;;;;13.60;8.20;;;17.80;90.20;;;;;;5095332;28;20020;-76
2023/07/14 02:50:58;;;;;;;12.23;8.25;;;17.80;90.20;;;;;;5095289;28;20024;-76
2023/07/14 02:53:23;;;;;;;10.88;7.90;;;17.80;90.30;;;;;;5095241;28;20025;-76
2023/07/14 02:55:49;;;;;;;12.60;8.05;;;17.80;90.30;;;;;;5093691;28;20059;-77
2023/07/14 02:58:15;;;;;;;13.23;7.95;;;17.80;90.20;;;;;;5095226;28;20048;-76
2023/07/14 03:00:40;;;;;;;11.75;7.78;;;17.80;90.30;;;;;;5094046;28;20032;-77
2023/07/14 03:03:06;;;;;;;13.68;7.95;;;17.80;90.40;;;;;;5094990;28;20032;-77
2023/07/14 03:05:31;;;;;;;11.52;7.85;;;17.80;90.30;;;;;;5094873;28;20036;-76
2023/07/14 03:07:57;;;;;;;13.15;8.65;;;17.90;90.30;;;;;;5094912;28;20040;-76
2023/07/14 03:10:23;;;;;;;12.40;8.02;;;17.80;90.20;;;;;;5077154;28;20024;-76
2023/07/14 03:12:48;;;;;;;10.93;7.57;;;17.80;90.20;;;;;;5094841;28;20037;-77
2023/07/14 03:15:14;;;;;;;14.13;8.23;;;17.80;90.20;;;;;;5093834;28;20033;-76
2023/07/14 03:17:40;;;;;;;12.95;7.95;;;17.80;90.10;;;;;;5094870;28;20039;-76
2023/07/14 03:20:10;;;;;;;13.35;8.30;;;17.80;90.10;;;;;;5093690;28;20036;-77
2023/07/14 03:22:36;;;;;;;12.88;7.80;;;17.80;90.10;;;;;;5077646;28;20096;-76
2023/07/14 03:25:01;;;;;;;11.93;7.60;;;17.80;90.10;;;;;;5094457;28;20032;-76
2023/07/14 03:27:28;;;;;;;13.38;7.68;;;17.80;90.10;;;;;;5093584;28;20031;-76
2023/07/14 03:29:54;;;;;;;11.68;7.55;;;17.90;90.10;;;;;;5093496;28;20031;-76
2023/07/14 03:32:20;;;;;;;12.73;7.65;;;17.90;90.00;;;;;;5094411;28;20020;-76
2023/07/14 03:34:47;;;;;;;11.25;7.45;;;17.80;89.90;;;;;;5093339;28;20033;-76
2023/07/14 03:37:12;;;;;;;14.27;7.72;;;17.80;90.00;;;;;;5094321;28;20050;-77
2023/07/14 03:39:38;;;;;;;12.05;7.70;;;17.80;90.00;;;;;;5093230;28;20063;-76
2023/07/14 03:42:04;;;;;;;11.52;7.00;;;17.80;90.00;;;;;;5076496;28;20032;-76
2023/07/14 03:44:31;;;;;;;11.52;7.15;;;17.80;90.10;;;;;;5094011;28;20060;-76
2023/07/14 03:46:57;;;;;;;10.20;7.30;;;17.90;90.10;;;;;;5093144;28;20029;-76
2023/07/14 03:49:22;;;;;;;11.52;7.43;;;17.90;90.00;;;;;;5093139;28;20028;-76
2023/07/14 03:51:48;;;;;;;11.02;7.55;;;17.90;90.00;;;;;;5093052;28;20032;-76
2023/07/14 03:54:14;;;;;;;9.73;7.40;;;17.90;90.00;;;;;;5092987;28;20037;-76
2023/07/14 03:56:42;;;;;;;12.68;7.00;;;17.90;90.00;;;;;;5093039;28;20025;-77
2023/07/14 03:59:07;;;;;;;11.57;7.72;;;17.90;90.00;;;;;;5092872;28;20036;-77
2023/07/14 04:01:33;;;;;;;13.20;8.13;;;17.90;90.00;;;;;;5092839;28;20033;-77
2023/07/14 04:03:59;;;;;;;16.88;7.30;;;17.90;90.00;;;;;;5093827;28;20040;-76
2023/07/14 04:06:24;;;;;;;12.30;8.38;;;17.90;90.00;;;;;;5075950;28;20067;-76
2023/07/14 04:08:54;;;;;;;13.77;8.65;;;17.90;90.10;;;;;;5075237;28;20099;-76
2023/07/14 04:11:20;;;;;;;12.15;8.13;;;17.70;90.20;;;;;;5092787;28;20027;-76
2023/07/14 04:13:46;;;;;;;12.25;8.32;;;17.80;90.30;;;;;;5092754;28;20052;-76
2023/07/14 04:16:11;;;;;;;14.55;8.52;;;17.80;90.20;;;;;;5093653;28;20050;-75
2023/07/14 04:18:37;;;;;;;12.75;8.43;;;17.70;90.20;;;;;;5093610;28;20033;-76
2023/07/14 04:21:10;;;;;;;12.07;8.48;;;17.70;90.20;;;;;;5092608;28;20024;-76
2023/07/14 04:23:36;;;;;;;12.93;8.63;;;17.60;90.30;;;;;;5092532;28;20141;-76
2023/07/14 04:26:03;;;;;;;12.82;8.52;;;17.60;90.50;;;;;;5093432;28;20032;-76
2023/07/14 04:28:29;;;;;;;15.18;9.02;;;17.70;90.50;;;;;;5093451;28;20052;-76
2023/07/14 04:30:56;;;;;;;13.55;8.38;;;17.70;90.60;;;;;;5092516;28;20110;-76
2023/07/14 04:33:22;;;;;;;15.82;8.70;;;17.60;90.40;;;;;;5092338;28;20023;-76
2023/07/14 04:35:51;;;;;;;16.67;9.35;;;17.60;90.70;;;;;;5093416;28;20028;-76
2023/07/14 04:38:18;;;;;;;15.75;9.63;;;17.50;90.70;;;;;;5092435;28;20035;-76
2023/07/14 04:40:45;;;;;;;15.15;9.68;;;17.40;91.00;;;;;;5093329;28;20024;-76
2023/07/14 04:43:12;;;;;;;15.93;9.98;;;17.40;91.10;;;;;;5092041;28;20112;-77
2023/07/14 04:45:42;;;;;;;17.73;9.98;;;17.30;91.80;;;;;;5092167;28;20028;-76
2023/07/14 04:48:11;;;;;;;16.50;10.30;;;17.20;91.70;;;;;;5092356;28;20027;-76
2023/07/14 04:50:37;;;;;;;20.33;10.52;;;17.20;91.80;;;;;;5092278;28;20021;-77
2023/07/14 04:53:06;;;;;;;14.77;9.43;;;17.20;92.00;;;;;;5092304;28;20033;-77
2023/07/14 04:55:36;;;;;;;15.65;9.68;;;17.20;92.00;;;;;;5092183;28;20115;-77
2023/07/14 04:58:02;;;;;;;17.70;9.13;;;17.20;92.10;;;;;;5093193;28;20074;-77
2023/07/14 05:00:28;;;;;;;14.23;8.98;;;17.30;92.10;;;;;;5092244;28;20036;-77
2023/07/14 05:02:54;;;;;;;15.55;9.07;;;17.30;92.00;;;;;;5092197;28;20095;-77
2023/07/14 05:05:22;;;;;;;13.73;8.70;;;17.40;91.90;;;;;;5093091;28;20044;-77
2023/07/14 05:07:48;;;;;;;16.35;9.05;;;17.40;91.80;;;;;;5092168;28;20024;-76
2023/07/14 05:10:15;;;;;;;14.00;8.65;;;17.50;91.80;;;;;;5093079;28;20027;-76
2023/07/14 05:12:40;;;;;;;15.60;8.88;;;17.50;91.90;;;;;;5092009;28;20051;-76
2023/07/14 05:15:10;;;;;;;14.00;8.80;;;17.50;91.90;;;;;;5075298;28;20033;-76
2023/07/14 05:17:41;;;;;;;13.32;8.80;;;17.50;91.80;;;;;;5092094;28;20028;-77
2023/07/14 05:20:12;;;;;;;15.50;9.20;;;17.60;91.80;;;;;;5095139;28;20084;-76
2023/07/14 05:22:42;;;;;;;12.50;8.90;;;17.60;91.70;;;;;;5079847;28;20032;-76
2023/07/14 05:25:09;;;;;;;14.15;8.68;;;17.60;91.60;;;;;;5096957;28;20051;-76
2023/07/14 05:27:35;;;;;;;11.48;8.52;;;17.70;91.60;;;;;;5079244;28;20084;-76
2023/07/14 05:30:05;;;;;;;15.50;8.90;;;17.70;91.50;;;;;;5096785;28;20020;-76
2023/07/14 05:32:32;;;;;;;13.50;8.70;;;17.80;91.40;;;;;;5078954;28;20126;-77
2023/07/14 05:34:58;;;;;;;12.75;7.95;;;17.80;91.30;;;;;;5096581;28;20021;-76
2023/07/14 05:37:24;;;;;;;13.90;8.98;;;17.80;91.20;;;;;;5095590;28;20028;-76
2023/07/14 05:39:50;;;;;;;14.93;8.70;;;17.80;91.20;;;;;;5096585;28;20021;-76
2023/07/14 05:42:16;;;;;;;13.90;8.50;;;17.80;91.10;;;;;;5095497;28;20013;-77
2023/07/14 05:44:42;;;;;;;13.48;8.55;;;17.80;91.00;;;;;;5095324;28;20068;-77
2023/07/14 05:47:08;;;;;;;12.63;9.48;;;17.80;91.10;;;;;;5095527;28;20029;-77
2023/07/14 05:49:34;;;;;;;12.40;9.32;;;17.80;91.00;;;;;;5096421;28;20032;-77
2023/07/14 05:52:00;;;;;;;13.88;8.98;;;17.80;91.10;;;;;;5095421;28;20046;-76
2023/07/14 05:54:26;;;;;;;14.48;9.20;;;17.90;91.10;;;;;;5096332;28;20031;-77
2023/07/14 05:56:53;;;;;;;13.65;8.75;;;17.90;91.10;;;;;;5078632;28;20028;-77
2023/07/14 05:59:19;;;;;;;12.65;8.35;;;17.90;91.10;;;;;;5095324;28;20088;-77
2023/07/14 06:01:46;;;;;;;15.13;8.90;;;17.90;91.10;;;;;;5095221;28;20024;-76
2023/07/14 06:04:11;;;;;;;15.13;8.65;;;18.00;91.30;;;;;;5095113;28;20092;-76
2023/07/14 06:06:37;;;;;;;15.38;7.93;;;17.90;91.10;;;;;;5095190;28;20036;-76
2023/07/14 06:09:03;;;;;;;12.65;8.35;;;18.00;91.10;;;;;;5095072;28;20458;-77
2023/07/14 06:11:29;;;;;;;13.52;9.02;;;18.00;91.20;;;;;;5095990;28;20078;-77
2023/07/14 06:13:56;;;;;;;12.88;8.43;;;18.00;91.40;;;;;;5095958;28;20090;-76
2023/07/14 06:16:22;;;;;;;14.18;9.05;;;18.10;91.40;;;;;;5096087;28;20021;-76
2023/07/14 06:18:48;;;;;;;14.23;8.65;;;18.10;91.30;;;;;;5094854;28;20024;-76
2023/07/14 06:21:15;;;;;;;11.00;7.53;;;18.10;91.20;;;;;;5095820;28;20082;-76
2023/07/14 06:23:40;;;;;;;13.55;8.32;;;18.20;91.00;;;;;;5078179;28;20505;-77
2023/07/14 06:26:06;;;;;;;13.25;7.30;;;18.30;91.20;;;;;;5078027;28;20036;-77
2023/07/14 06:28:32;;;;;;;12.90;7.65;;;18.30;90.70;;;;;;5095722;28;20028;-77
2023/07/14 06:31:01;;;;;;;13.75;7.88;;;18.30;90.60;;;;;;5093704;28;20028;-77
2023/07/14 06:33:27;;;;;;;13.77;8.27;;;18.30;90.60;;;;;;5095510;28;20021;-77
2023/07/14 06:35:55;;;;;;;14.52;7.75;;;18.40;90.60;;;;;;5094602;28;20092;-77
2023/07/14 06:38:22;;;;;;;11.93;7.57;;;18.40;90.60;;;;;;5095537;28;20024;-77
2023/07/14 06:40:54;;;;;;;14.30;7.22;;;18.50;90.80;;;;;;5094516;28;20025;-77
2023/07/14 06:43:19;;;;;;;11.32;6.25;;;18.60;90.80;;;;;;5095256;28;20124;-77
2023/07/14 06:45:50;;;;;;;9.98;6.35;;;18.60;90.50;;;;;;5094336;28;20044;-77
2023/07/14 06:48:16;;;;;;;8.82;5.03;;;18.60;90.80;;;;;;5095394;28;20031;-77
2023/07/14 06:50:42;;;;;;;12.82;4.95;;;18.60;90.60;;;;;;5094258;28;20021;-77
2023/07/14 06:53:08;;;;;;;12.45;5.22;;;18.60;90.30;;;;;;5094189;28;20046;-77
2023/07/14 06:55:37;;;;;;;12.88;4.47;;;18.70;90.30;;;;;;5095328;28;20031;-77
2023/07/14 06:58:03;;;;;;;8.73;4.05;;;18.80;90.00;;;;;;5095171;28;20053;-77
2023/07/14 07:00:31;;;;;;;7.85;3.80;;;18.70;88.70;;;;;;5094117;28;20017;-77
2023/07/14 07:02:57;;;;;;;7.65;3.80;;;18.70;87.90;;;;;;5094094;28;20051;-76
2023/07/14 07:05:23;;;;;;;8.05;3.90;;;18.80;88.30;;;;;;5077166;28;20032;-76
2023/07/14 07:07:49;;;;;;;7.60;3.60;;;18.80;88.30;;;;;;5093995;28;20092;-76
2023/07/14 07:10:15;;;;;;;6.50;3.97;;;18.90;87.40;;;;;;5094918;28;20036;-77
2023/07/14 07:12:41;;;;;;;9.25;3.78;;;18.80;86.10;;;;;;5093828;28;20013;-77
2023/07/14 07:15:07;;;;;;;7.93;3.72;;;18.80;86.10;;;;;;5093879;28;20476;-77
2023/07/14 07:17:33;;;;;;;7.70;3.60;;;18.80;86.40;;;;;;5093840;28;20024;-77
2023/07/14 07:19:59;;;;;;;6.95;3.90;;;18.90;87.30;;;;;;5077091;28;20033;-76
2023/07/14 07:22:24;;;;;;;8.90;4.00;;;18.90;87.10;;;;;;5094548;28;20020;-76
2023/07/14 07:24:50;;;;;;;7.72;3.97;;;18.90;86.20;;;;;;5093658;28;20039;-77
2023/07/14 07:27:15;;;;;;;6.80;3.55;;;19.00;86.00;;;;;;5093672;28;20033;-77
2023/07/14 07:29:44;;;;;;;7.15;3.50;;;19.00;85.60;;;;;;5093340;28;20051;-76
2023/07/14 07:32:10;;;;;;;5.25;2.97;;;19.10;85.70;;;;;;5094640;28;20028;-77
2023/07/14 07:34:36;;;;;;;6.82;3.40;;;19.10;85.50;;;;;;5094351;28;20038;-76
2023/07/14 07:37:02;;;;;;;6.18;3.08;;;19.10;84.70;;;;;;5094496;28;20031;-76
2023/07/14 07:39:28;;;;;;;6.40;2.70;;;19.10;84.20;;;;;;5093424;28;20029;-76
2023/07/14 07:41:54;;;;;;;5.82;2.78;;;19.20;83.80;;;;;;5093028;28;20044;-77
2023/07/14 07:44:21;;;;;;;5.50;2.60;;;19.10;83.10;;;;;;5076447;28;20112;-76
2023/07/14 07:46:46;;;;;;;7.93;2.83;;;19.20;82.90;;;;;;5093154;28;20039;-77
2023/07/14 07:49:12;;;;;;;5.60;2.58;;;19.20;83.00;;;;;;5094234;28;20021;-77
2023/07/14 07:51:38;;;;;;;5.68;2.53;;;19.30;83.30;;;;;;5093198;28;20020;-77
2023/07/14 07:54:04;;;;;;;5.35;2.60;;;19.30;82.40;;;;;;5092967;28;20080;-76
2023/07/14 07:56:30;;;;;;;6.60;2.78;;;19.40;83.10;;;;;;5092927;28;20051;-77
2023/07/14 07:58:56;;;;;;;3.53;2.30;;;19.50;83.40;;;;;;5076333;28;20036;-76
2023/07/14 08:01:26;;;;;;;5.28;2.63;;;19.50;81.80;;;;;;5094007;28;20455;-77
2023/07/14 08:03:52;;;;;;;4.20;2.97;;;19.50;81.70;;;;;;5093938;28;20084;-76
2023/07/14 08:06:19;;;;;;;5.35;2.67;;;19.60;82.40;;;;;;5092874;28;20103;-76
2023/07/14 08:08:45;;;;;;;7.95;3.20;;;19.60;81.00;;;;;;5093799;28;20020;-77
2023/07/14 08:11:12;;;;;;;6.50;3.08;;;19.60;82.10;;;;;;5076161;28;20075;-76
2023/07/14 08:13:38;;;;;;;4.80;3.00;;;19.70;82.40;;;;;;5093582;28;20035;-76
2023/07/14 08:16:05;;;;;;;5.40;2.90;;;19.70;81.30;;;;;;5092632;28;20039;-75
2023/07/14 08:18:31;;;;;;;5.32;3.13;;;19.80;81.70;;;;;;5093670;28;20031;-76
2023/07/14 08:21:01;;;;;;;6.38;2.88;;;19.80;81.40;;;;;;5092518;28;20182;-77
2023/07/14 08:23:27;;;;;;;6.55;2.63;;;19.90;81.60;;;;;;5092585;28;20099;-77
2023/07/14 08:25:59;;;;;;;4.90;2.47;;;19.80;79.70;;;;;;5093407;28;20024;-77
2023/07/14 08:28:28;;;;;;;4.30;2.90;;;19.90;81.10;;;;;;5093552;28;20028;-76
2023/07/14 08:30:58;;;;;;;5.88;2.83;;;19.90;79.90;;;;;;5092472;28;20024;-77
2023/07/14 08:33:25;;;;;;;4.95;2.45;;;19.90;79.80;;;;;;5093347;28;20043;-77
2023/07/14 08:35:52;;;;;;;5.00;2.13;;;19.90;79.10;;;;;;5092510;28;20050;-77
2023/07/14 08:38:18;;;;;;;3.95;2.00;;;19.80;78.40;;;;;;5093386;28;20024;-76
2023/07/14 08:40:52;;;;;;;6.95;2.30;;;19.90;78.60;;;;;;5093446;28;20027;-77
2023/07/14 08:43:27;;;;;;;4.07;2.10;;;20.00;80.00;;;;;;5093146;28;20037;-76
2023/07/14 08:46:00;;;;;;;3.08;1.98;;;20.00;77.60;;;;;;5093245;28;20028;-77
2023/07/14 08:48:38;;;;;;;3.90;2.03;;;20.00;77.90;;;;;;5093308;28;20021;-77
2023/07/14 08:51:46;;;;;;;5.13;2.03;;;20.00;77.30;;;;;;5093309;28;20028;-77
2023/07/14 08:54:19;;;;;;;4.18;1.75;;;20.10;77.80;;;;;;5079516;28;20054;-76
2023/07/14 08:56:46;;;;;;;4.40;2.00;;;20.00;78.70;;;;;;5093378;28;20028;-76
2023/07/14 08:59:39;;;;;;;6.50;2.08;;;20.00;78.60;;;;;;5093146;28;20033;-77
2023/07/14 09:02:33;;;;;;;3.63;2.20;;;19.90;77.80;;;;;;5093180;28;20024;-77
2023/07/14 09:05:03;;;;;;;4.10;2.05;;;20.00;78.30;;;;;;5093158;28;20027;-77
2023/07/14 09:07:29;;;;;;;3.20;2.10;;;20.00;78.10;;;;;;5092157;28;20197;-77
2023/07/14 09:09:55;;;;;;;3.08;1.88;;;20.00;77.80;;;;;;5092022;28;20017;-77
2023/07/14 09:12:31;;;;;;;3.50;1.85;;;20.00;78.40;;;;;;5093018;28;20024;-76
2023/07/14 09:15:10;;;;;;;4.78;2.00;;;20.10;80.10;;;;;;5093039;28;20377;-77
2023/07/14 09:17:49;;;;;;;4.35;2.10;;;20.10;77.80;;;;;;5092904;28;20024;-77
2023/07/14 09:20:26;;;;;;;6.07;2.20;;;20.10;78.90;;;;;;5093037;28;20009;-76
2023/07/14 09:23:00;;;;;;;4.75;2.25;;;20.20;78.40;;;;;;5092982;28;20060;-77
2023/07/14 09:25:43;;;;;;;4.30;2.10;;;20.40;78.00;;;;;;5092840;28;20036;-77
2023/07/14 09:28:18;;;;;;;4.50;2.20;;;20.50;78.30;;;;;;5092961;28;20074;-77
2023/07/14 09:30:46;;;;;;;4.18;2.15;;;20.70;79.20;;;;;;5091934;28;20027;-77
2023/07/14 09:33:16;;;;;;;5.00;2.40;;;20.70;78.10;;;;;;5091856;28;20013;-77
2023/07/14 09:35:45;;;;;;;4.15;2.20;;;20.90;78.70;;;;;;5091830;28;20039;-76
2023/07/14 09:38:34;;;;;;;4.18;2.53;;;21.00;78.30;;;;;;5091880;28;20084;-76
2023/07/14 09:41:02;;;;;;;5.38;2.42;;;21.10;77.60;;;;;;5092810;28;20040;-77
2023/07/14 09:43:28;;;;;;;3.03;2.20;;;21.20;78.00;;;;;;5092567;28;20069;-77
2023/07/14 09:45:54;;;;;;;4.65;2.60;;;21.20;76.90;;;;;;5091889;28;20110;-77
2023/07/14 09:48:23;;;;;;;5.50;2.63;;;21.40;76.50;;;;;;5091785;28;20021;-77
2023/07/14 09:51:04;;;;;;;5.97;3.00;;;21.50;75.60;;;;;;5092834;28;20052;-77
2023/07/14 09:53:32;;;;;;;4.65;2.55;;;21.50;75.80;;;;;;5092744;28;20021;-76
2023/07/14 09:56:03;;;;;;;5.30;2.60;;;21.50;75.50;;;;;;5092658;28;20115;-77
2023/07/14 09:58:31;;;;;;;3.28;2.30;;;21.60;76.40;;;;;;5092704;28;20024;-77
2023/07/14 10:00:59;;;;;;;5.00;2.80;;;21.60;76.40;;;;;;5091627;28;20021;-77
2023/07/14 10:03:31;;;;;;;7.53;3.33;;;21.70;75.50;;;;;;5092562;28;20048;-76
2023/07/14 10:06:05;;;;;;;5.85;2.83;;;21.60;75.60;;;;;;5092686;28;20020;-77
2023/07/14 10:08:33;;;;;;;5.93;2.83;;;21.60;75.70;;;;;;5095218;28;20020;-77
2023/07/14 10:11:17;;;;;;;7.10;2.70;;;21.70;75.80;;;;;;5096077;28;20017;-77
2023/07/14 10:14:00;;;;;;;5.50;2.67;;;21.80;76.70;;;;;;5096023;28;20124;-77
2023/07/14 10:16:33;;;;;;;7.63;3.00;;;21.90;76.70;;;;;;5096001;28;20028;-77
2023/07/14 10:19:14;;;;;;;4.60;2.45;;;22.00;76.20;;;;;;5095988;28;20050;-77
2023/07/14 10:21:57;;;;;;;4.43;2.40;;;22.00;75.50;;;;;;5096071;28;20040;-77
2023/07/14 10:24:24;;;;;;;5.07;2.30;;;22.00;75.80;;;;;;5094897;28;20479;-77
2023/07/14 10:27:03;;;;;;;5.60;2.50;;;22.10;75.50;;;;;;5094712;28;20058;-77
2023/07/14 10:30:04;;;;;;;5.20;2.25;;;22.30;74.70;;;;;;5095776;28;20032;-77
2023/07/14 10:32:44;;;;;;;3.72;2.20;;;22.30;73.40;;;;;;5095639;28;20054;-77
2023/07/14 10:35:29;;;;;;;5.40;2.50;;;22.40;73.20;;;;;;5094638;28;20088;-77
2023/07/14 10:38:22;;;;;;;4.70;2.55;;;22.40;73.40;;;;;;5095612;28;20024;-77
2023/07/14 10:41:05;;;;;;;5.45;2.67;;;22.40;74.30;;;;;;5095574;28;20020;-76
2023/07/14 10:43:35;;;;;;;4.25;2.50;;;22.40;74.70;;;;;;5095236;28;20064;-77
2023/07/14 10:46:21;;;;;;;5.85;2.50;;;22.30;71.90;;;;;;5095366;28;20036;-77
2023/07/14 10:48:56;;;;;;;5.53;2.40;;;22.30;72.30;;;;;;5094569;28;20047;-77
2023/07/14 10:51:29;;;;;;;3.95;2.42;;;22.30;72.70;;;;;;5095367;28;20016;-77
2023/07/14 10:54:09;;;;;;;4.13;2.40;;;22.20;74.00;;;;;;5095333;28;20028;-77
2023/07/14 10:56:52;;;;;;;7.25;2.60;;;22.20;72.80;;;;;;5094323;28;20024;-77
2023/07/14 10:59:26;;;;;;;4.20;2.28;;;22.20;74.40;;;;;;5094198;28;20025;-77
2023/07/14 11:02:11;;;;;;;5.57;2.47;;;22.30;73.40;;;;;;5095185;28;20059;-77
2023/07/14 11:04:45;;;;;;;4.82;2.70;;;22.30;71.90;;;;;;5095089;28;20020;-77
2023/07/14 11:07:30;;;;;;;6.78;2.22;;;22.30;72.50;;;;;;5094951;28;20035;-78
2023/07/14 11:09:57;;;;;;;4.93;2.90;;;22.40;72.50;;;;;;5095014;28;20013;-77
2023/07/14 11:12:32;;;;;;;5.20;2.13;;;22.30;72.90;;;;;;5077372;28;20028;-76
2023/07/14 11:14:58;;;;;;;3.60;2.40;;;22.40;72.50;;;;;;5094899;28;20017;-77
2023/07/14 11:17:40;;;;;;;4.28;2.15;;;22.50;72.50;;;;;;5094363;28;20025;-77
2023/07/14 11:20:17;;;;;;;4.85;2.20;;;22.60;72.90;;;;;;5094809;28;20023;-77
2023/07/14 11:22:49;;;;;;;3.58;2.40;;;22.60;72.20;;;;;;5093739;28;20082;-77
2023/07/14 11:25:42;;;;;;;5.15;2.42;;;22.70;71.60;;;;;;5094562;28;20032;-77
2023/07/14 11:28:46;;;;;;;3.97;2.25;;;22.60;71.10;;;;;;5094617;28;20027;-77
2023/07/14 11:31:26;;;;;;;4.15;2.05;;;22.60;70.80;;;;;;5064707;28;20055;-77
2023/07/14 11:34:18;;;;;;;3.92;2.28;;;22.60;71.80;;;;;;5094430;28;20021;-76
2023/07/14 11:36:57;;;;;;;3.57;2.00;;;22.60;70.00;;;;;;5087655;28;20074;-77
2023/07/14 11:39:40;;;;;;;3.97;2.17;;;22.60;71.70;;;;;;5093335;28;20024;-77
2023/07/14 11:42:21;;;;;;;3.92;2.10;;;22.70;71.60;;;;;;5093333;28;20020;-77
2023/07/14 11:44:48;;;;;;;3.90;1.95;;;22.80;71.70;;;;;;5093039;28;20442;-77
2023/07/14 11:47:31;;;;;;;4.03;2.67;;;22.80;70.00;;;;;;5093138;28;20052;-77
2023/07/14 11:50:01;;;;;;;3.78;1.92;;;23.00;69.40;;;;;;5093162;28;20020;-77
2023/07/14 11:52:29;;;;;;;4.97;2.10;;;23.10;68.60;;;;;;5094300;28;20029;-77
2023/07/14 11:55:19;;;;;;;6.50;2.20;;;23.10;69.20;;;;;;5094024;28;20024;-77
2023/07/14 11:57:50;;;;;;;5.03;2.00;;;23.30;67.80;;;;;;5094137;28;20032;-77
2023/07/14 12:00:24;;;;;;;5.00;2.08;;;23.20;69.10;;;;;;5092981;28;20028;-77
2023/07/14 12:03:02;;;;;;;4.65;2.25;;;23.10;69.00;;;;;;5093927;28;20033;-77
2023/07/14 12:05:30;;;;;;;4.20;1.92;;;23.20;70.00;;;;;;5092842;28;20020;-77
2023/07/14 12:08:04;;;;;;;4.07;2.10;;;23.20;68.70;;;;;;5093810;28;20016;-77
2023/07/14 12:10:42;;;;;;;4.80;1.95;;;23.30;69.50;;;;;;5092801;28;20051;-77
2023/07/14 12:13:16;;;;;;;3.08;1.92;;;23.30;69.30;;;;;;5093695;28;20044;-76
2023/07/14 12:15:42;;;;;;;3.97;1.90;;;23.40;68.10;;;;;;5093734;28;20036;-77
2023/07/14 12:18:35;;;;;;;4.30;1.88;;;23.40;68.70;;;;;;5092584;28;20029;-77
2023/07/14 12:21:16;;;;;;;4.40;2.00;;;23.50;68.80;;;;;;5092660;28;20043;-77
2023/07/14 12:23:42;;;;;;;5.03;2.20;;;23.60;68.20;;;;;;5093568;28;20036;-77
2023/07/14 12:26:14;;;;;;;6.28;2.40;;;23.70;68.20;;;;;;5092542;28;20371;-77
2023/07/14 12:28:40;;;;;;;5.57;2.35;;;23.70;67.90;;;;;;5092979;28;20032;-78
2023/07/14 12:31:13;;;;;;;5.15;2.30;;;23.90;67.80;;;;;;5093343;28;20121;-77
2023/07/14 12:33:39;;;;;;;4.03;2.20;;;24.10;68.90;;;;;;5093404;28;20017;-77
2023/07/14 12:36:09;;;;;;;4.30;2.53;;;24.20;68.30;;;;;;5092510;28;20051;-77
2023/07/14 12:38:35;;;;;;;5.07;2.05;;;24.20;66.90;;;;;;5092540;28;20012;-77
2023/07/14 12:41:02;;;;;;;4.88;2.13;;;24.20;66.80;;;;;;5093408;28;20042;-77
2023/07/14 12:43:34;;;;;;;4.22;2.65;;;24.10;67.10;;;;;;5075703;28;20045;-78
2023/07/14 12:46:03;;;;;;;6.70;2.67;;;24.00;67.50;;;;;;5092154;28;20048;-77
2023/07/14 12:48:31;;;;;;;5.28;2.38;;;24.00;65.80;;;;;;5093318;28;20017;-78
2023/07/14 12:50:58;;;;;;;5.60;2.38;;;24.10;67.80;;;;;;5093312;28;20076;-78
2023/07/14 12:53:31;;;;;;;5.53;2.50;;;24.10;64.80;;;;;;5093288;28;20017;-77
2023/07/14 12:56:04;;;;;;;3.35;2.03;;;24.10;66.70;;;;;;5093341;28;20034;-80
2023/07/14 12:58:30;;;;;;;3.97;2.25;;;24.20;66.00;;;;;;5092263;28;20028;-77